Kanaskat, Washington
Current Conditions -  °F | °C
As of 5:53 PM on Monday 24 Nov 2014 (Local Time) from KRNT Reporting Station
Overcast Overcast  
Wind Chill: 50°   Ceiling: 5000
Heat Index: 50°   Visibility: 10mi
Dew Point: 42°   Wind: 6mph
Humidity: 74%   Direction: 140°SE
Pressure: 30.15"   Gusts: NA
Location:  47.3777°N, 121.913°W
Report Text: KRNT 250153Z 14005KT 10SM BKN050 OVC090 10/06 A3015 RMK AO2 RAE15 SLP215 P0000 T01000056
Loading
Personal Weather Stations






























Interactive Weather Map New forecast layout! Learn more

10-Day Weather Forecast

Advertisements
Track Severe Weather on mobile